createdAt,value
2019-06-26T00:12:27.474Z,61.70
2019-06-26T00:14:59.084Z,62.00
2019-06-26T00:17:39.344Z,62.40
2019-06-26T00:20:12.309Z,62.20
2019-06-26T00:22:53.843Z,62.60
2019-06-26T00:25:57.940Z,63.10
2019-06-26T00:28:41.470Z,63.40
2019-06-26T00:31:11.748Z,63.60
2019-06-26T00:34:12.951Z,63.90
2019-06-26T00:36:51.143Z,64.10
2019-06-26T00:39:34.739Z,64.30
2019-06-26T00:45:49.866Z,64.90
2019-06-26T00:48:57.364Z,65.10
2019-06-26T01:07:48.224Z,66.60
2019-06-26T01:10:55.269Z,67.20
2019-06-26T01:17:35.715Z,68.00
2019-06-26T02:08:10.723Z,73.30
2019-06-26T02:10:43.392Z,73.80
2019-06-26T02:13:13.041Z,74.00
2019-06-26T02:15:42.390Z,74.40
2019-06-26T02:18:30.914Z,74.50
2019-06-26T02:21:00.983Z,74.90
2019-06-26T02:35:38.232Z,76.10
2019-06-26T02:38:07.899Z,76.70
2019-06-26T02:40:37.496Z,77.30
2019-06-26T02:43:14.502Z,77.50
2019-06-26T03:00:22.607Z,79.10
2019-06-26T03:04:16.018Z,79.60
2019-06-26T03:08:06.162Z,80.10
2019-06-26T03:10:38.600Z,80.80
2019-06-26T03:13:32.579Z,81.40
2019-06-26T03:16:13.031Z,81.90
2019-06-26T03:19:06.693Z,82.10
2019-06-26T03:22:39.448Z,82.40
2019-06-26T03:42:02.521Z,85.30
2019-06-26T03:44:36.593Z,86.30
2019-06-26T03:47:14.620Z,86.70
2019-06-26T03:49:56.806Z,86.90
2019-06-26T03:52:38.557Z,87.40
2019-06-26T03:55:21.532Z,87.40
2019-06-26T04:23:37.584Z,90.50
2019-06-26T04:41:25.731Z,92.00
2019-06-26T04:43:55.150Z,92.10
2019-06-26T04:46:24.599Z,92.10
2019-06-26T04:48:55.402Z,92.30
2019-06-26T04:51:24.823Z,92.50
2019-06-26T04:53:57.329Z,92.40
2019-06-26T04:56:31.722Z,92.40
2019-06-26T04:59:20.081Z,92.50
2019-06-26T05:01:54.217Z,92.50
2019-06-26T05:04:36.249Z,92.50
2019-06-26T05:07:48.490Z,92.60
2019-06-26T05:17:15.747Z,92.60
2019-06-26T05:19:45.575Z,92.60
2019-06-26T05:22:15.050Z,92.70
2019-06-26T05:24:49.573Z,92.60
2019-06-26T05:27:18.590Z,92.80
2019-06-26T05:29:54.439Z,93.00
2019-06-26T05:32:32.484Z,93.20
2019-06-26T05:35:02.243Z,93.30
2019-06-26T05:37:32.037Z,93.20
2019-06-26T05:40:01.706Z,93.30
2019-06-26T05:42:31.109Z,93.20
2019-06-26T05:45:00.249Z,93.40
2019-06-26T05:47:29.497Z,93.10
2019-06-26T05:49:59.014Z,93.30
2019-06-26T05:56:01.235Z,93.00
2019-06-26T05:58:30.515Z,93.00
2019-06-26T06:00:59.604Z,92.90
2019-06-26T06:03:29.053Z,92.80
2019-06-26T06:05:58.370Z,92.60
2019-06-26T06:08:27.501Z,92.60
2019-06-26T06:10:58.304Z,92.40
2019-06-26T06:13:27.962Z,92.50
2019-06-26T06:15:57.176Z,92.50
2019-06-26T06:18:26.377Z,92.20
2019-06-26T06:20:55.740Z,92.10
2019-06-26T06:23:24.917Z,92.20
2019-06-26T06:25:54.165Z,91.90
2019-06-26T06:28:23.695Z,91.80
2019-06-26T06:30:53.338Z,91.70
2019-06-26T06:33:22.561Z,91.80
2019-06-26T06:35:51.818Z,92.10
2019-06-26T06:38:20.782Z,91.60
2019-06-26T06:40:50.230Z,91.30
2019-06-26T06:43:22.431Z,91.40
2019-06-26T06:45:51.459Z,91.50
2019-06-26T06:48:20.623Z,91.50
2019-06-26T06:50:50.097Z,91.70
2019-06-26T06:53:19.281Z,91.50
2019-06-26T06:55:48.440Z,91.00
2019-06-26T06:58:17.770Z,90.90
2019-06-26T07:00:46.900Z,91.00
2019-06-26T07:03:16.442Z,91.00
2019-06-26T07:05:45.638Z,91.00
2019-06-26T07:08:14.887Z,90.90
2019-06-26T07:10:44.250Z,90.70
2019-06-26T07:13:15.467Z,90.60
2019-06-26T07:15:44.905Z,89.50
2019-06-26T07:18:14.095Z,88.80
2019-06-26T07:20:44.723Z,89.20
2019-06-26T07:23:19.556Z,88.40
2019-06-26T07:25:48.823Z,88.00
2019-06-26T07:28:18.129Z,87.50
2019-06-26T07:30:47.490Z,87.40
2019-06-26T07:33:22.770Z,87.00
2019-06-26T07:35:57.885Z,85.30
2019-06-26T07:38:27.105Z,84.30
2019-06-26T07:40:56.099Z,81.70
2019-06-26T07:43:25.688Z,80.90
2019-06-26T07:45:55.923Z,79.30
2019-06-26T07:48:25.081Z,78.00
2019-06-26T07:50:54.441Z,76.20
2019-06-26T07:53:23.938Z,75.30
2019-06-26T07:55:53.400Z,75.30
2019-06-26T07:58:22.452Z,74.50
2019-06-26T08:00:51.558Z,73.90
2019-06-26T08:03:20.760Z,73.40
2019-06-26T08:05:50.030Z,73.40
2019-06-26T08:08:19.243Z,73.30
2019-06-26T08:10:49.678Z,71.20
2019-06-26T08:13:18.761Z,69.90
2019-06-26T08:15:48.164Z,69.80
2019-06-26T08:18:18.517Z,68.90
2019-06-26T08:21:07.250Z,68.30
2019-06-26T08:23:18.736Z,68.10
2019-06-26T08:25:48.120Z,68.70
2019-06-26T08:28:17.429Z,66.80
2019-06-26T08:30:46.774Z,67.70
2019-06-26T08:33:15.924Z,68.80
2019-06-26T08:35:45.180Z,67.90
2019-06-26T08:38:15.846Z,66.90
2019-06-26T08:40:45.029Z,66.80
2019-06-26T08:43:14.326Z,66.30
2019-06-26T08:45:43.384Z,65.60
2019-06-26T08:48:19.308Z,65.40
2019-06-26T08:50:43.335Z,64.60
2019-06-26T08:53:12.466Z,64.30
2019-06-26T08:55:41.480Z,65.60
2019-06-26T08:58:10.666Z,65.50
2019-06-26T09:00:39.735Z,65.30
2019-06-26T09:03:08.919Z,64.70
2019-06-26T09:05:48.131Z,64.10
2019-06-26T09:08:09.138Z,63.90
2019-06-26T09:10:38.426Z,63.70
2019-06-26T09:13:08.346Z,62.40
2019-06-26T09:15:37.515Z,62.00
2019-06-26T09:18:06.618Z,61.10
2019-06-26T09:20:39.491Z,60.80
2019-06-26T09:23:09.185Z,60.20
2019-06-26T09:25:38.699Z,59.20
2019-06-26T09:28:07.879Z,58.70
2019-06-26T09:30:37.051Z,58.50
2019-06-26T09:33:06.149Z,57.50
2019-06-26T09:35:35.429Z,58.00
2019-06-26T09:38:04.814Z,58.40
2019-06-26T09:40:33.961Z,57.80
2019-06-26T09:43:03.058Z,56.80
2019-06-26T09:45:32.357Z,56.60
2019-06-26T09:48:01.592Z,56.70
2019-06-26T09:50:30.896Z,56.50
2019-06-26T09:53:00.270Z,56.30
2019-06-26T09:55:29.835Z,54.20
2019-06-26T09:57:59.096Z,53.70
2019-06-26T10:00:28.852Z,53.50
2019-06-26T10:02:57.990Z,54.00
2019-06-26T10:05:29.559Z,54.10
2019-06-26T10:07:58.807Z,53.50
2019-06-26T10:10:28.098Z,52.60
2019-06-26T10:12:57.633Z,52.10
2019-06-26T10:15:27.347Z,51.30
2019-06-26T10:17:57.661Z,51.20
2019-06-26T10:20:28.144Z,51.30
2019-06-26T10:22:57.426Z,51.50
2019-06-26T10:25:28.301Z,51.10
2019-06-26T10:27:57.630Z,51.80
2019-06-26T10:30:27.082Z,51.70
2019-06-26T10:32:57.417Z,51.50
2019-06-26T10:35:26.685Z,52.30
2019-06-26T10:37:55.886Z,52.30
2019-06-26T10:40:25.047Z,52.40
2019-06-26T10:42:54.405Z,52.70
2019-06-26T10:45:23.687Z,53.80
2019-06-26T10:47:52.990Z,53.10
2019-06-26T10:50:23.765Z,53.00
2019-06-26T10:52:52.989Z,53.20
2019-06-26T10:55:27.954Z,53.50
2019-06-26T10:57:57.342Z,53.50
2019-06-26T11:00:28.545Z,52.60
2019-06-26T11:03:00.170Z,52.50
2019-06-26T11:05:29.740Z,53.10
2019-06-26T11:08:03.515Z,53.60
2019-06-26T11:10:33.131Z,53.20
2019-06-26T11:13:02.548Z,52.10
2019-06-26T11:15:31.821Z,52.40
2019-06-26T11:18:01.253Z,52.10
2019-06-26T11:20:32.646Z,51.60
2019-06-26T11:23:02.493Z,52.20
2019-06-26T11:25:31.781Z,51.50
2019-06-26T11:28:02.029Z,51.00
2019-06-26T11:30:32.139Z,50.20
2019-06-26T11:33:01.217Z,49.60
2019-06-26T11:35:33.665Z,49.50
2019-06-26T11:38:02.815Z,49.00
2019-06-26T11:40:32.419Z,49.00
2019-06-26T11:43:01.985Z,50.60
2019-06-26T11:45:31.486Z,51.10
2019-06-26T11:48:01.228Z,51.70
2019-06-26T11:50:30.508Z,50.80
2019-06-26T11:52:59.561Z,50.90
2019-06-26T11:55:28.571Z,50.90
2019-06-26T11:57:59.082Z,50.80
2019-06-26T12:00:29.004Z,51.00
2019-06-26T12:03:00.080Z,52.20
2019-06-26T12:05:29.832Z,51.90
2019-06-26T12:07:59.060Z,51.40
2019-06-26T12:10:29.073Z,50.90
2019-06-26T12:13:13.020Z,51.50
2019-06-26T12:15:48.954Z,52.10
2019-06-26T12:18:29.920Z,51.50
2019-06-26T12:24:45.950Z,51.50
2019-06-26T12:30:32.768Z,52.10
2019-06-26T12:56:09.470Z,51.30
2019-06-26T13:01:41.176Z,52.10
2019-06-26T13:05:00.557Z,52.10
2019-06-26T13:07:51.151Z,52.40
2019-06-26T13:14:42.719Z,52.30
2019-06-26T13:18:01.273Z,50.40
2019-06-26T13:20:24.359Z,51.20
2019-06-26T13:23:09.226Z,51.30
2019-06-26T13:25:38.191Z,50.20
2019-06-26T13:28:12.104Z,50.10
2019-06-26T13:30:39.412Z,50.10
2019-06-26T13:33:08.572Z,50.50
2019-06-26T13:42:23.464Z,50.30
2019-06-26T13:44:53.052Z,49.50
2019-06-26T13:47:22.183Z,49.50
2019-06-26T13:49:57.200Z,49.40
2019-06-26T13:53:01.169Z,49.20
2019-06-26T13:55:02.195Z,49.30
2019-06-26T13:57:31.367Z,48.90
2019-06-26T14:00:00.588Z,49.50
2019-06-26T14:02:29.594Z,49.70
2019-06-26T14:04:58.756Z,49.80
2019-06-26T14:07:28.128Z,50.10
2019-06-26T14:09:57.245Z,50.10
2019-06-26T14:12:26.508Z,50.20
2019-06-26T14:14:57.749Z,50.70
2019-06-26T14:17:26.506Z,50.50
2019-06-26T14:19:55.611Z,49.70
2019-06-26T14:22:24.735Z,49.10
2019-06-26T14:24:54.345Z,49.40
2019-06-26T14:27:23.713Z,49.60
2019-06-26T14:29:52.798Z,50.40
2019-06-26T14:32:21.963Z,51.80
2019-06-26T14:34:51.440Z,52.50
2019-06-26T14:37:20.507Z,52.30
2019-06-26T14:39:49.632Z,52.10
2019-06-26T14:42:18.685Z,51.90
2019-06-26T14:44:47.854Z,51.90
2019-06-26T14:47:17.057Z,51.80
2019-06-26T14:49:46.081Z,51.30
2019-06-26T14:52:15.364Z,51.60
2019-06-26T14:54:44.409Z,51.60
2019-06-26T14:57:13.507Z,52.50
2019-06-26T14:59:42.653Z,53.50
2019-06-26T15:02:12.322Z,54.00
2019-06-26T15:04:41.479Z,53.90
2019-06-26T15:07:11.121Z,53.90
2019-06-26T15:09:43.273Z,53.40
2019-06-26T15:12:12.509Z,53.40
2019-06-26T15:14:41.809Z,53.50
2019-06-26T15:17:11.292Z,53.80
2019-06-26T15:19:40.506Z,53.80
2019-06-26T15:25:24.410Z,54.30
2019-06-26T15:27:54.629Z,54.10
2019-06-26T15:30:24.149Z,54.20
2019-06-26T15:32:53.635Z,54.80
2019-06-26T15:35:22.654Z,55.10
2019-06-26T15:37:51.686Z,54.90
2019-06-26T15:40:20.996Z,54.80
2019-06-26T15:42:50.016Z,54.70
2019-06-26T15:45:20.883Z,55.00
2019-06-26T15:47:50.180Z,55.30
2019-06-26T15:50:19.782Z,54.80
2019-06-26T15:52:49.018Z,54.80
2019-06-26T15:55:18.157Z,55.20
2019-06-26T15:57:47.237Z,55.40
2019-06-26T16:00:16.415Z,55.20
2019-06-26T16:02:45.846Z,54.20
2019-06-26T16:05:16.104Z,54.70
2019-06-26T16:07:45.177Z,54.60
2019-06-26T16:10:14.640Z,54.70
2019-06-26T16:12:43.758Z,54.50
2019-06-26T16:15:13.265Z,54.50
2019-06-26T16:18:07.568Z,54.80
2019-06-26T16:20:36.755Z,55.20
2019-06-26T16:23:06.090Z,55.00
2019-06-26T16:25:36.018Z,55.10
2019-06-26T16:28:06.196Z,55.10
2019-06-26T16:30:36.044Z,55.10
2019-06-26T16:33:05.457Z,54.90
2019-06-26T16:35:35.670Z,55.10
2019-06-26T16:38:04.903Z,55.10
2019-06-26T16:40:33.889Z,54.80
2019-06-26T16:43:03.015Z,55.00
2019-06-26T16:45:32.136Z,55.00
2019-06-26T16:48:01.273Z,55.30
2019-06-26T16:50:30.417Z,55.50
2019-06-26T16:52:59.573Z,55.60
2019-06-26T16:55:28.941Z,55.80
2019-06-26T16:57:57.993Z,56.20
2019-06-26T17:00:27.042Z,56.30
2019-06-26T17:02:56.187Z,56.30
2019-06-26T17:05:25.820Z,56.50
2019-06-26T17:07:54.888Z,56.80
2019-06-26T17:10:24.138Z,57.10
2019-06-26T17:12:53.406Z,57.30
2019-06-26T17:15:22.558Z,57.70
2019-06-26T17:17:51.854Z,58.00
2019-06-26T17:20:21.484Z,58.30
2019-06-26T17:23:04.593Z,58.70
2019-06-26T17:25:21.792Z,58.70
2019-06-26T17:27:51.004Z,58.60
2019-06-26T17:30:20.334Z,58.50
2019-06-26T17:32:49.405Z,57.90
2019-06-26T17:35:19.724Z,57.70
2019-06-26T17:37:48.942Z,57.70
2019-06-26T17:40:19.254Z,57.40
2019-06-26T17:42:48.424Z,57.20
2019-06-26T17:45:18.895Z,57.30
2019-06-26T17:47:48.168Z,57.10
2019-06-26T17:50:18.202Z,56.90
2019-06-26T17:52:47.344Z,56.60
2019-06-26T17:55:16.714Z,56.30
2019-06-26T17:57:47.586Z,56.80
2019-06-26T18:00:42.564Z,55.70
2019-06-26T18:07:27.039Z,55.70
2019-06-26T18:27:04.395Z,54.70
2019-06-26T18:29:40.746Z,55.10
2019-06-26T18:32:10.143Z,55.30
2019-06-26T18:34:39.398Z,55.40
2019-06-26T18:37:09.269Z,55.80
2019-06-26T18:39:38.580Z,55.80
2019-06-26T18:42:17.180Z,56.20
2019-06-26T18:44:47.594Z,56.40
2019-06-26T18:47:25.131Z,57.00
2019-06-26T18:49:54.357Z,57.30
2019-06-26T18:52:23.804Z,57.60
2019-06-26T18:54:53.458Z,57.60
2019-06-26T18:57:22.868Z,58.00
2019-06-26T18:59:52.422Z,58.20
2019-06-26T19:02:22.819Z,58.10
2019-06-26T19:04:54.375Z,58.10
2019-06-26T19:07:24.062Z,58.50
2019-06-26T19:13:11.919Z,58.90
2019-06-26T19:15:46.184Z,59.20
2019-06-26T19:18:15.276Z,59.60
2019-06-26T19:21:39.635Z,59.80
2019-06-26T19:24:10.860Z,60.00
2019-06-26T19:26:42.760Z,60.30
2019-06-26T19:29:21.151Z,60.60
2019-06-26T19:31:50.495Z,60.90
2019-06-26T19:34:20.341Z,61.30
2019-06-26T19:36:57.679Z,61.80
2019-06-26T19:39:21.537Z,62.10
2019-06-26T19:41:50.848Z,62.70
2019-06-26T19:44:20.239Z,63.10
2019-06-26T19:46:51.206Z,64.20
2019-06-26T19:53:57.477Z,65.00
2019-06-26T19:56:28.065Z,65.40
2019-06-26T19:59:04.265Z,67.20
2019-06-26T20:01:33.596Z,67.40
2019-06-26T20:04:04.407Z,67.10
2019-06-26T20:06:42.090Z,67.90
2019-06-26T20:09:11.981Z,68.20
2019-06-26T20:11:41.515Z,68.70
2019-06-26T20:14:12.680Z,68.40
2019-06-26T20:16:45.846Z,68.70
2019-06-26T20:19:22.305Z,68.60
2019-06-26T20:22:05.899Z,69.70
2019-06-26T20:24:44.269Z,68.90
2019-06-26T20:27:20.304Z,69.20
2019-06-26T20:32:58.495Z,69.10
2019-06-26T20:35:31.914Z,69.20
2019-06-26T20:38:03.349Z,69.60
2019-06-26T20:40:34.866Z,69.80
2019-06-26T20:43:08.348Z,69.70
2019-06-26T20:45:39.388Z,70.10
2019-06-26T20:48:10.608Z,70.30
2019-06-26T20:50:46.149Z,70.80
2019-06-26T20:53:15.989Z,70.70
2019-06-26T20:55:45.305Z,70.70
2019-06-26T21:15:24.824Z,71.90
2019-06-26T21:18:59.888Z,71.60
2019-06-26T21:21:34.907Z,71.90
2019-06-26T21:24:58.567Z,73.20
2019-06-26T21:27:53.447Z,72.90
2019-06-26T21:30:25.969Z,73.20
2019-06-26T21:32:58.939Z,73.60
